Bihrmann's

DIVE LOG Part 3, Bonaire 2
Part 2                                              Part 4


All dives are directly from the shore. All dives without operator. All dives on Nitrox 32% O2
12 l aluminium tank on all dives. Morten have verified all dives. Debt in meters, Temperatures in
Celsius, Weight in kilograms, Pressure in BAR, Visibility in metres.
Profile of the dives from dive #81. Se individual by clicking on dive #.


Notes Date No. US$ Site

Time in

Depth

Start air

Stop air

Total time

This dive

New total

  Weather

Air temp

Water temp Visibility

Suit

Kg

Sightings
Own Gear 08 02 09 77   YS House Reef 13.57 5 220 180 09:42 00:40 02:10:22 Good 28 26 15 1,5 short 2  
375$ 08 02 10 78 Nitrox Oil Sleack Leap 9.22 13,4 220 130 10:22 00:45 02:11:07 Good 28 26 20 1,5 short 2  
  08 02 10 79 7 days Alice in Wonderland 13.06 17 240 120 11:07 00:54 02:12:01 Good 28 26 20 1,5 short 2  
  08 02 10 80 124$ Oil Sleack Leap 17.42 15,2 220 100 12:01 00:39 02:12:40 Good 28 26 25 1,5 short 2 Octopus, Barracudas
Computer 08 02 11 81 6$ a dive Windsock 10.36 10,6 220 110 12:40 01:00 02:13:40 Good 28 26 35 1,5 short 2  
360$ 08 02 11 82   Jeff Davi's Memorial 13.39 16,4 220 70 13:40 00:56 02:14:36 Good 28 26 20 1,5 short 2 Hawksbilled turtle, big crab
  08 02 11 83   Karpata 17.32 12,2 220 110 14:36 00:45 02:15:21 Good 28 26 30 1,5 short 2 Drowned camera
  08 02 12 84   The Lake 9.22 23,4 220 100 15:21 00:44 02:16:05 Good 28 26 60 1,5 short 4  
  08 02 12 85 20 dives in  Karpata 13.37 15,8 220 120 16:05 00:45 02:16:50 Good 28 26 25 1,5 short 2  
  08 02 12 86

7 days

La Machata 17.19 16,1 220 110 16:50 00:48 02:17:38 Excellent 28 26 25 1,5 short 2  
  08 02 13 87   1000 Steps 9.23 23,7 220 100 17:38 00:39 02:18:17 Excellent 28 26 30 1,5 short 1 Good photos
  08 02 13 88   Bachlors Beach 11.18 30,5 220 80 18:17 00:38 02:18:55 Excellent 28 26 30 1,5 short 2  
  08 02 13 89   La Dania's Leap 14.07 14,6 220 110 18:55 00:41 02:19:36 Excellent 28 26 25 3 short 2 Short fins, new 3 mm shorty suit
  08 02 13 90   OlŽBlue 17.51 5,2 220 170 19:36 00:26 02:20:02 Excellent 28 26 15 3 short 2 Small turtle
  08 02 14 91   Alice in Wonderland 9.57 27,7 220 50 20:02 00:47 02:20:49 Excellent 28 26 20 3 short 2,5 Turtle, Giant parrotfish
  08 02 14 92   Oil Sleack Leap 13.57 21,6 200 110 20:49 00:49 02:21:38 Excellent 28 26 30 3 short 2,5 2 turtles, giant fan coral
  08 02 14 93   Karpata 17.45 17,3 200 140 21:38 00:40 02:22:18 Excellent 28 26 30 3 short 2,5 Spotted eagle ray
  08 02 15 94   YS House Reef 10.32 17,7 220 130 22:18 00:56 02:23:14 Excellent 28 26 20 3 short 2,5 Big fishes, wreck
Wreck 08 02 15 95   Hilma Hooker 14.41 26,5 220 135 23:14 00:42 02:23:56 Excellent 28 26 25 3 short 2,5 Wall of dead corals Lobsters
  08 02 15 96   Cai 16.49 6,7 220 190 23:56 00:16 03:00:12 Excellent 28 26 5-10 3 short 2,5 Spotted Garden Eals
  08 02 18 97   Salt City 10.12 26,2 220 70 00:12 00:49 03:01:01 Excellent 28 26 50 3 short 2,5 Small turtle
  08 02 18 98   Pink Beach 12.13 31,1 220 80 01:01 00:54 03:01:55 Excellent 28 26 40 3 short 2,5  
  08 02 18 99 Nitrox OlŽBlue 16.12 25 220 75 01:55 00:43 03:02:38 Excellent 28 26 30 3 short 2,5 Large turtle
  08 02 19 100 7 days Punt Vierkant 8.27 22,8 220 80 02:38 00:44 03:03:22 Part Cloud 28 26 30 3 short 2,5  
  08 02 19 101 124$ Oil Sleack Leap 11.24 28,9 220 100 03:22 00:40 03:04:02 Excellent 28 26 30 3 short 2,5 Giant Blue Parrotfish
  08 02 19 102 5,63$/dive Andrea II 15.44 25,6 220 50 04:02 00:50 03:04:52 Excellent 28 26 30 3 short 2,5 2 new fish
  08 02 20 103   Pink Beach 9.45 27,4 220 50 04:52 01:00 03:05:52 Excellent 28 26 40 3 short 2,5 Giant concylie, Juvinis Spotted Drum Fish
  08 02 20 104   Red Slave Huts 11.57 31,1 220 190 05:52 00:34 03:06:26 Excellent 28 26 60 3 short 2,5 Carib Reef Squirts, Flamingo Tough Snails
  08 02 20 105   Corporal Meiss 15.59 22,5 220 80 06:26 00:52 03:07:18 Excellent 28 26 40 3 short 2,5 Large "herring": Tampon, Nightlife
  08 02 20 106   Oil Sleack Leap 20.18 18,3 220 140 07:18 00:30 03:07:48 Excellent 28 26 30 3 short 2,5  
  08 02 21 107   Windsock Steep 10.49 15,5 220 130 07:48 00:41 03:08:29 Excellent 28 26 10-30 3 short 2,5 Dolphins from the surf.
  08 02 21 108   Pink Beach 14.22 27,7 220 70 08:29 00:51 03:09:20 Excellent 28 26 50 3 short 2,5  
  08 02 21 109 22 dives in Witch's Hut 16.57 31,1 220 70 09:20 00:45 03:10:05 Excellent 28 26 40-50 3 short 2,5 Tugboat wreck, hard current
Wreck 08 02 22 110  7 days Front Porch 11.15 28,9 220 75 10:05 00:28 03:10:33 Rainy 26 26 30-40 3 short 2,5 Pier columns, Big turtle, long sea cucumber. Drown camera
  08 02 22 111   Windsock Steep 15.23 10,6 220 140 10:33 00:53 03:11:26 Rainy 26 26 40 3 short 2,5 Big Fireworm
  08 02 23 112 This tour Jeff Davi's Memorial 9.52 14,9 220 150 11:26 00:51 03:12:17 Excellent 28 26 30 3 short 2,5 Turtle
  08 02 23 113  31,5 h Karpata 12.04 25,6 220 80 12:17 00:46 03:13:03 Excellent 28 26 40-50 3 short 2,5 2 Octopus
  08 02 23 114   Tori's Reef 15.40 12,5 220 140 13:03 01:00 03:14:03 Excellent 28 26 40 3 short 2,5 COLD!
  08 02 23 115   Angel City 17.41 11,9 220 180 14:03 00:35 03:14:38 Excellent 28 26 40 3 short 2,5  
  08 02 24 116   Aquarious 10.08 21 220 110 14:38 00:55 03:15:33 Excellent 28 26 40 3 short 2,5  
  08 02 24 117   Witch's Hut 12.37 32,6 220 70 15:33 00:51 03:16:24 Excellent 28 26 40 3 short 2,5  
  08 02 24 118   Karpata 14.30 22,5 220 90 16:24 00:50 03:17:14 Excellent 28 26 60 3 short 5